sensor_id;sensor_type;location;lat;lon;timestamp;temperature;humidity
32502;DHT22;18952;52.516;13.460;2023-07-31T00:01:07;14.70;99.90
32502;DHT22;18952;52.516;13.460;2023-07-31T00:03:33;14.70;99.90
32502;DHT22;18952;52.516;13.460;2023-07-31T00:06:00;14.70;99.90
32502;DHT22;18952;52.516;13.460;2023-07-31T00:08:27;14.70;99.90
32502;DHT22;18952;52.516;13.460;2023-07-31T00:10:53;14.70;99.90
32502;DHT22;18952;52.516;13.460;2023-07-31T00:13:20;14.70;99.90
32502;DHT22;18952;52.516;13.460;2023-07-31T00:15:47;14.70;99.90
32502;DHT22;18952;52.516;13.460;2023-07-31T00:18:14;14.70;99.90
32502;DHT22;18952;52.516;13.460;2023-07-31T00:20:40;14.60;99.90
32502;DHT22;18952;52.516;13.460;2023-07-31T00:23:07;14.60;99.90
32502;DHT22;18952;52.516;13.460;2023-07-31T00:25:34;14.60;99.90
32502;DHT22;18952;52.516;13.460;2023-07-31T00:28:00;14.60;99.90
32502;DHT22;18952;52.516;13.460;2023-07-31T00:30:27;14.60;99.90
32502;DHT22;18952;52.516;13.460;2023-07-31T00:32:54;14.60;99.90
32502;DHT22;18952;52.516;13.460;2023-07-31T00:35:20;14.60;99.90
32502;DHT22;18952;52.516;13.460;2023-07-31T00:37:47;14.60;99.90
32502;DHT22;18952;52.516;13.460;2023-07-31T00:40:14;14.70;99.90
32502;DHT22;18952;52.516;13.460;2023-07-31T00:42:40;14.70;99.90
32502;DHT22;18952;52.516;13.460;2023-07-31T00:45:07;14.70;99.90
32502;DHT22;18952;52.516;13.460;2023-07-31T00:47:34;14.70;99.90
32502;DHT22;18952;52.516;13.460;2023-07-31T00:50:01;14.70;99.90
32502;DHT22;18952;52.516;13.460;2023-07-31T00:52:30;14.80;99.90
32502;DHT22;18952;52.516;13.460;2023-07-31T00:54:57;14.80;99.90
32502;DHT22;18952;52.516;13.460;2023-07-31T00:57:24;14.80;99.90
32502;DHT22;18952;52.516;13.460;2023-07-31T00:59:50;14.80;99.90
32502;DHT22;18952;52.516;13.460;2023-07-31T01:02:17;14.80;99.90
32502;DHT22;18952;52.516;13.460;2023-07-31T01:04:44;14.90;99.90
32502;DHT22;18952;52.516;13.460;2023-07-31T01:07:13;14.90;99.90
32502;DHT22;18952;52.516;13.460;2023-07-31T01:09:48;14.90;99.90
32502;DHT22;18952;52.516;13.460;2023-07-31T01:12:15;14.90;99.90
32502;DHT22;18952;52.516;13.460;2023-07-31T01:17:28;15.00;99.90
32502;DHT22;18952;52.516;13.460;2023-07-31T01:19:55;15.00;99.90
32502;DHT22;18952;52.516;13.460;2023-07-31T01:27:28;15.00;99.90
32502;DHT22;18952;52.516;13.460;2023-07-31T01:29:59;15.00;99.90
32502;DHT22;18952;52.516;13.460;2023-07-31T01:32:28;15.00;99.90
32502;DHT22;18952;52.516;13.460;2023-07-31T01:34:55;15.10;99.90
32502;DHT22;18952;52.516;13.460;2023-07-31T01:37:22;15.10;99.90
32502;DHT22;18952;52.516;13.460;2023-07-31T01:39:54;15.10;99.90
32502;DHT22;18952;52.516;13.460;2023-07-31T01:42:20;15.10;99.90
32502;DHT22;18952;52.516;13.460;2023-07-31T01:44:47;15.10;99.90
32502;DHT22;18952;52.516;13.460;2023-07-31T01:47:14;15.10;99.90
32502;DHT22;18952;52.516;13.460;2023-07-31T01:49:40;15.10;99.90
32502;DHT22;18952;52.516;13.460;2023-07-31T01:52:07;15.20;99.90
32502;DHT22;18952;52.516;13.460;2023-07-31T01:54:34;15.10;99.90
32502;DHT22;18952;52.516;13.460;2023-07-31T01:57:00;15.20;99.90
32502;DHT22;18952;52.516;13.460;2023-07-31T01:59:27;15.30;99.90
32502;DHT22;18952;52.516;13.460;2023-07-31T02:01:53;15.30;99.90
32502;DHT22;18952;52.516;13.460;2023-07-31T02:04:20;15.30;99.90
32502;DHT22;18952;52.516;13.460;2023-07-31T02:06:47;15.30;99.90
32502;DHT22;18952;52.516;13.460;2023-07-31T02:09:14;15.30;99.90
32502;DHT22;18952;52.516;13.460;2023-07-31T02:11:40;15.30;99.90
32502;DHT22;18952;52.516;13.460;2023-07-31T02:14:07;15.40;99.90
32502;DHT22;18952;52.516;13.460;2023-07-31T02:16:35;15.40;99.90
32502;DHT22;18952;52.516;13.460;2023-07-31T02:19:02;15.40;99.90
32502;DHT22;18952;52.516;13.460;2023-07-31T02:21:29;15.40;99.90
32502;DHT22;18952;52.516;13.460;2023-07-31T02:23:55;15.40;99.90
32502;DHT22;18952;52.516;13.460;2023-07-31T02:26:22;15.40;99.90
32502;DHT22;18952;52.516;13.460;2023-07-31T02:28:49;15.40;99.90
32502;DHT22;18952;52.516;13.460;2023-07-31T02:31:15;15.40;99.90
32502;DHT22;18952;52.516;13.460;2023-07-31T02:33:42;15.40;99.90
32502;DHT22;18952;52.516;13.460;2023-07-31T02:36:08;15.40;99.90
32502;DHT22;18952;52.516;13.460;2023-07-31T02:38:35;15.40;99.90
32502;DHT22;18952;52.516;13.460;2023-07-31T02:41:02;15.40;99.90
32502;DHT22;18952;52.516;13.460;2023-07-31T02:43:28;15.50;99.90
32502;DHT22;18952;52.516;13.460;2023-07-31T02:45:55;15.40;99.90
32502;DHT22;18952;52.516;13.460;2023-07-31T02:48:23;15.50;99.90
32502;DHT22;18952;52.516;13.460;2023-07-31T02:50:49;15.50;99.90
32502;DHT22;18952;52.516;13.460;2023-07-31T02:53:16;15.50;99.90
32502;DHT22;18952;52.516;13.460;2023-07-31T02:55:42;15.50;99.90
32502;DHT22;18952;52.516;13.460;2023-07-31T02:58:09;15.40;99.90
32502;DHT22;18952;52.516;13.460;2023-07-31T03:00:36;15.40;99.90
32502;DHT22;18952;52.516;13.460;2023-07-31T03:03:02;15.50;99.90
32502;DHT22;18952;52.516;13.460;2023-07-31T03:05:29;15.40;99.90
32502;DHT22;18952;52.516;13.460;2023-07-31T03:07:56;15.40;99.90
32502;DHT22;18952;52.516;13.460;2023-07-31T03:10:22;15.40;99.90
32502;DHT22;18952;52.516;13.460;2023-07-31T03:12:49;15.50;99.90
32502;DHT22;18952;52.516;13.460;2023-07-31T03:15:16;15.40;99.90
32502;DHT22;18952;52.516;13.460;2023-07-31T03:17:43;15.40;99.90
32502;DHT22;18952;52.516;13.460;2023-07-31T03:20:10;15.40;99.90
32502;DHT22;18952;52.516;13.460;2023-07-31T03:22:36;15.40;99.90
32502;DHT22;18952;52.516;13.460;2023-07-31T03:25:03;15.40;99.90
32502;DHT22;18952;52.516;13.460;2023-07-31T03:27:30;15.30;99.90
32502;DHT22;18952;52.516;13.460;2023-07-31T03:29:57;15.40;99.90
32502;DHT22;18952;52.516;13.460;2023-07-31T03:32:24;15.30;99.90
32502;DHT22;18952;52.516;13.460;2023-07-31T03:34:50;15.30;99.90
32502;DHT22;18952;52.516;13.460;2023-07-31T03:37:17;15.30;99.90
32502;DHT22;18952;52.516;13.460;2023-07-31T03:39:43;15.20;99.90
32502;DHT22;18952;52.516;13.460;2023-07-31T03:42:10;15.20;99.90
32502;DHT22;18952;52.516;13.460;2023-07-31T03:44:37;15.20;99.90
32502;DHT22;18952;52.516;13.460;2023-07-31T03:47:03;15.20;99.90
32502;DHT22;18952;52.516;13.460;2023-07-31T03:49:30;15.20;99.90
32502;DHT22;18952;52.516;13.460;2023-07-31T03:51:57;15.30;99.90
32502;DHT22;18952;52.516;13.460;2023-07-31T03:54:24;15.30;99.90
32502;DHT22;18952;52.516;13.460;2023-07-31T03:56:50;15.20;99.90
32502;DHT22;18952;52.516;13.460;2023-07-31T03:59:17;15.30;99.90
32502;DHT22;18952;52.516;13.460;2023-07-31T04:01:44;15.30;99.90
32502;DHT22;18952;52.516;13.460;2023-07-31T04:04:10;15.30;99.90
32502;DHT22;18952;52.516;13.460;2023-07-31T04:06:37;15.30;99.90
32502;DHT22;18952;52.516;13.460;2023-07-31T04:09:04;15.20;99.90
32502;DHT22;18952;52.516;13.460;2023-07-31T04:11:31;15.20;99.90
32502;DHT22;18952;52.516;13.460;2023-07-31T04:13:57;15.30;99.90
32502;DHT22;18952;52.516;13.460;2023-07-31T04:16:24;15.30;99.90
32502;DHT22;18952;52.516;13.460;2023-07-31T04:18:51;15.30;99.90
32502;DHT22;18952;52.516;13.460;2023-07-31T04:21:17;15.30;99.90
32502;DHT22;18952;52.516;13.460;2023-07-31T04:23:44;15.30;99.90
32502;DHT22;18952;52.516;13.460;2023-07-31T04:26:11;15.20;99.90
32502;DHT22;18952;52.516;13.460;2023-07-31T04:28:37;15.30;99.90
32502;DHT22;18952;52.516;13.460;2023-07-31T04:31:04;15.30;99.90
32502;DHT22;18952;52.516;13.460;2023-07-31T04:33:31;15.20;99.90
32502;DHT22;18952;52.516;13.460;2023-07-31T04:35:58;15.20;99.90
32502;DHT22;18952;52.516;13.460;2023-07-31T04:38:25;15.20;99.90
32502;DHT22;18952;52.516;13.460;2023-07-31T04:40:51;15.30;99.90
32502;DHT22;18952;52.516;13.460;2023-07-31T04:43:18;15.20;99.90
32502;DHT22;18952;52.516;13.460;2023-07-31T04:45:45;15.30;99.90
32502;DHT22;18952;52.516;13.460;2023-07-31T04:48:12;15.30;99.90
32502;DHT22;18952;52.516;13.460;2023-07-31T04:50:38;15.30;99.90
32502;DHT22;18952;52.516;13.460;2023-07-31T04:53:05;15.30;99.90
32502;DHT22;18952;52.516;13.460;2023-07-31T04:55:32;15.30;99.90
32502;DHT22;18952;52.516;13.460;2023-07-31T04:57:59;15.30;99.90
32502;DHT22;18952;52.516;13.460;2023-07-31T05:00:25;15.40;99.90
32502;DHT22;18952;52.516;13.460;2023-07-31T05:02:52;15.40;99.90
32502;DHT22;18952;52.516;13.460;2023-07-31T05:05:19;15.40;99.90
32502;DHT22;18952;52.516;13.460;2023-07-31T05:07:45;15.50;99.90
32502;DHT22;18952;52.516;13.460;2023-07-31T05:10:12;15.50;99.90
32502;DHT22;18952;52.516;13.460;2023-07-31T05:12:39;15.50;99.90
32502;DHT22;18952;52.516;13.460;2023-07-31T05:15:05;15.50;99.90
32502;DHT22;18952;52.516;13.460;2023-07-31T05:17:32;15.60;99.90
32502;DHT22;18952;52.516;13.460;2023-07-31T05:19:59;15.70;99.90
32502;DHT22;18952;52.516;13.460;2023-07-31T05:22:26;15.70;99.90
32502;DHT22;18952;52.516;13.460;2023-07-31T05:24:53;15.70;99.90
32502;DHT22;18952;52.516;13.460;2023-07-31T05:27:19;15.80;99.90
32502;DHT22;18952;52.516;13.460;2023-07-31T05:29:46;15.80;99.90
32502;DHT22;18952;52.516;13.460;2023-07-31T05:32:12;15.90;99.90
32502;DHT22;18952;52.516;13.460;2023-07-31T05:34:39;15.90;99.90
32502;DHT22;18952;52.516;13.460;2023-07-31T05:37:06;15.80;99.90
32502;DHT22;18952;52.516;13.460;2023-07-31T05:39:32;15.80;99.90
32502;DHT22;18952;52.516;13.460;2023-07-31T05:41:59;15.90;99.90
32502;DHT22;18952;52.516;13.460;2023-07-31T05:44:26;15.90;99.90
32502;DHT22;18952;52.516;13.460;2023-07-31T05:46:53;15.80;99.90
32502;DHT22;18952;52.516;13.460;2023-07-31T05:49:19;15.70;99.90
32502;DHT22;18952;52.516;13.460;2023-07-31T05:51:46;15.70;99.90
32502;DHT22;18952;52.516;13.460;2023-07-31T05:54:13;15.70;99.90
32502;DHT22;18952;52.516;13.460;2023-07-31T05:56:39;15.70;99.90
32502;DHT22;18952;52.516;13.460;2023-07-31T05:59:08;15.70;99.90
32502;DHT22;18952;52.516;13.460;2023-07-31T06:01:34;15.70;99.90
32502;DHT22;18952;52.516;13.460;2023-07-31T06:04:18;15.70;99.90
32502;DHT22;18952;52.516;13.460;2023-07-31T06:06:47;15.80;99.90
32502;DHT22;18952;52.516;13.460;2023-07-31T06:09:13;15.90;99.90
32502;DHT22;18952;52.516;13.460;2023-07-31T06:11:40;15.80;99.90
32502;DHT22;18952;52.516;13.460;2023-07-31T06:14:07;15.90;99.90
32502;DHT22;18952;52.516;13.460;2023-07-31T06:16:34;15.90;99.90
32502;DHT22;18952;52.516;13.460;2023-07-31T06:19:01;16.00;99.90
32502;DHT22;18952;52.516;13.460;2023-07-31T06:21:28;16.00;99.90
32502;DHT22;18952;52.516;13.460;2023-07-31T06:23:54;16.10;99.90
32502;DHT22;18952;52.516;13.460;2023-07-31T06:26:23;16.10;99.90
32502;DHT22;18952;52.516;13.460;2023-07-31T06:28:50;16.10;99.90
32502;DHT22;18952;52.516;13.460;2023-07-31T06:31:17;16.10;99.90
32502;DHT22;18952;52.516;13.460;2023-07-31T06:33:44;16.00;99.90
32502;DHT22;18952;52.516;13.460;2023-07-31T06:36:11;16.00;99.90
32502;DHT22;18952;52.516;13.460;2023-07-31T06:38:38;15.90;99.90
32502;DHT22;18952;52.516;13.460;2023-07-31T06:41:05;15.90;99.90
32502;DHT22;18952;52.516;13.460;2023-07-31T06:43:32;15.90;99.90
32502;DHT22;18952;52.516;13.460;2023-07-31T06:46:07;15.90;99.90
32502;DHT22;18952;52.516;13.460;2023-07-31T06:48:35;15.90;99.90
32502;DHT22;18952;52.516;13.460;2023-07-31T06:51:02;15.90;99.90
32502;DHT22;18952;52.516;13.460;2023-07-31T06:53:29;15.90;99.90
32502;DHT22;18952;52.516;13.460;2023-07-31T06:55:56;15.80;99.90
32502;DHT22;18952;52.516;13.460;2023-07-31T06:58:23;15.80;99.90
32502;DHT22;18952;52.516;13.460;2023-07-31T07:00:49;15.90;99.90
32502;DHT22;18952;52.516;13.460;2023-07-31T07:03:18;15.90;99.90
32502;DHT22;18952;52.516;13.460;2023-07-31T07:05:45;16.00;99.90
32502;DHT22;18952;52.516;13.460;2023-07-31T07:08:12;16.00;99.90
32502;DHT22;18952;52.516;13.460;2023-07-31T07:10:39;16.10;99.90
32502;DHT22;18952;52.516;13.460;2023-07-31T07:13:05;16.10;99.90
32502;DHT22;18952;52.516;13.460;2023-07-31T07:15:32;16.10;99.90
32502;DHT22;18952;52.516;13.460;2023-07-31T07:17:59;16.10;99.90
32502;DHT22;18952;52.516;13.460;2023-07-31T07:20:26;16.20;99.90
32502;DHT22;18952;52.516;13.460;2023-07-31T07:22:53;16.00;99.90
32502;DHT22;18952;52.516;13.460;2023-07-31T07:25:19;16.00;99.90
32502;DHT22;18952;52.516;13.460;2023-07-31T07:27:46;16.00;99.90
32502;DHT22;18952;52.516;13.460;2023-07-31T07:30:13;16.00;99.90
32502;DHT22;18952;52.516;13.460;2023-07-31T07:32:40;16.00;99.90
32502;DHT22;18952;52.516;13.460;2023-07-31T07:35:07;16.10;99.90
32502;DHT22;18952;52.516;13.460;2023-07-31T07:37:34;16.10;99.90
32502;DHT22;18952;52.516;13.460;2023-07-31T07:40:01;16.20;99.90
32502;DHT22;18952;52.516;13.460;2023-07-31T07:42:28;16.10;99.90
32502;DHT22;18952;52.516;13.460;2023-07-31T07:44:54;16.20;99.90
32502;DHT22;18952;52.516;13.460;2023-07-31T07:47:21;16.20;99.90
32502;DHT22;18952;52.516;13.460;2023-07-31T07:49:48;16.30;99.90
32502;DHT22;18952;52.516;13.460;2023-07-31T07:52:19;16.40;99.90
32502;DHT22;18952;52.516;13.460;2023-07-31T07:54:46;16.50;99.90
32502;DHT22;18952;52.516;13.460;2023-07-31T07:57:12;16.60;99.90
32502;DHT22;18952;52.516;13.460;2023-07-31T07:59:40;16.60;99.90
32502;DHT22;18952;52.516;13.460;2023-07-31T08:02:07;16.70;99.90
32502;DHT22;18952;52.516;13.460;2023-07-31T08:04:33;16.70;99.90
32502;DHT22;18952;52.516;13.460;2023-07-31T08:07:01;16.70;99.90
32502;DHT22;18952;52.516;13.460;2023-07-31T08:09:28;16.70;99.90
32502;DHT22;18952;52.516;13.460;2023-07-31T08:11:54;16.70;99.90
32502;DHT22;18952;52.516;13.460;2023-07-31T08:14:21;16.80;99.90
32502;DHT22;18952;52.516;13.460;2023-07-31T08:16:48;16.90;99.90
32502;DHT22;18952;52.516;13.460;2023-07-31T08:19:15;16.80;99.90
32502;DHT22;18952;52.516;13.460;2023-07-31T08:21:42;16.60;99.90
32502;DHT22;18952;52.516;13.460;2023-07-31T08:24:08;16.60;99.90
32502;DHT22;18952;52.516;13.460;2023-07-31T08:26:35;16.60;99.90
32502;DHT22;18952;52.516;13.460;2023-07-31T08:29:02;16.60;99.90
32502;DHT22;18952;52.516;13.460;2023-07-31T08:31:29;16.60;99.90
32502;DHT22;18952;52.516;13.460;2023-07-31T08:33:56;16.60;99.90
32502;DHT22;18952;52.516;13.460;2023-07-31T08:36:23;16.50;99.90
32502;DHT22;18952;52.516;13.460;2023-07-31T08:38:49;16.60;99.90
32502;DHT22;18952;52.516;13.460;2023-07-31T08:41:16;16.60;99.90
32502;DHT22;18952;52.516;13.460;2023-07-31T08:43:47;16.60;99.90
32502;DHT22;18952;52.516;13.460;2023-07-31T08:46:16;16.60;99.90
32502;DHT22;18952;52.516;13.460;2023-07-31T08:48:43;16.60;99.90
32502;DHT22;18952;52.516;13.460;2023-07-31T08:51:10;16.70;99.90
32502;DHT22;18952;52.516;13.460;2023-07-31T08:53:37;16.60;99.90
32502;DHT22;18952;52.516;13.460;2023-07-31T08:56:05;16.60;99.90
32502;DHT22;18952;52.516;13.460;2023-07-31T08:58:34;16.70;99.90
32502;DHT22;18952;52.516;13.460;2023-07-31T09:01:04;16.80;99.90
32502;DHT22;18952;52.516;13.460;2023-07-31T09:03:33;16.90;99.90
32502;DHT22;18952;52.516;13.460;2023-07-31T09:06:02;17.00;99.90
32502;DHT22;18952;52.516;13.460;2023-07-31T09:08:30;17.00;99.90
32502;DHT22;18952;52.516;13.460;2023-07-31T09:11:00;17.10;99.90
32502;DHT22;18952;52.516;13.460;2023-07-31T09:13:29;17.20;99.90
32502;DHT22;18952;52.516;13.460;2023-07-31T09:15:56;17.30;99.90
32502;DHT22;18952;52.516;13.460;2023-07-31T09:18:23;17.30;99.90
32502;DHT22;18952;52.516;13.460;2023-07-31T09:21:03;17.40;99.90
32502;DHT22;18952;52.516;13.460;2023-07-31T09:23:43;17.30;99.90
32502;DHT22;18952;52.516;13.460;2023-07-31T09:26:11;17.20;99.90
32502;DHT22;18952;52.516;13.460;2023-07-31T09:28:37;17.10;99.90
32502;DHT22;18952;52.516;13.460;2023-07-31T09:31:04;17.00;99.90
32502;DHT22;18952;52.516;13.460;2023-07-31T09:33:31;16.90;99.90
32502;DHT22;18952;52.516;13.460;2023-07-31T09:39:19;17.00;99.90
32502;DHT22;18952;52.516;13.460;2023-07-31T09:41:56;16.80;99.90
32502;DHT22;18952;52.516;13.460;2023-07-31T09:44:38;16.70;99.90
32502;DHT22;18952;52.516;13.460;2023-07-31T09:47:05;16.70;99.90
32502;DHT22;18952;52.516;13.460;2023-07-31T09:49:32;16.60;99.90
32502;DHT22;18952;52.516;13.460;2023-07-31T09:51:59;16.60;99.90
32502;DHT22;18952;52.516;13.460;2023-07-31T09:54:26;16.70;99.90
32502;DHT22;18952;52.516;13.460;2023-07-31T09:56:54;16.70;99.90
32502;DHT22;18952;52.516;13.460;2023-07-31T09:59:22;16.70;99.90
32502;DHT22;18952;52.516;13.460;2023-07-31T10:01:50;16.80;99.90
32502;DHT22;18952;52.516;13.460;2023-07-31T10:04:21;16.80;99.90
32502;DHT22;18952;52.516;13.460;2023-07-31T10:06:53;16.80;99.90
32502;DHT22;18952;52.516;13.460;2023-07-31T10:09:21;16.90;99.90
32502;DHT22;18952;52.516;13.460;2023-07-31T10:11:56;16.90;99.90
32502;DHT22;18952;52.516;13.460;2023-07-31T10:14:26;16.90;99.90
32502;DHT22;18952;52.516;13.460;2023-07-31T10:16:54;17.00;99.90
32502;DHT22;18952;52.516;13.460;2023-07-31T10:19:21;17.10;99.90
32502;DHT22;18952;52.516;13.460;2023-07-31T10:21:49;17.10;99.90
32502;DHT22;18952;52.516;13.460;2023-07-31T10:24:16;17.10;99.90
32502;DHT22;18952;52.516;13.460;2023-07-31T10:26:45;17.10;99.90
32502;DHT22;18952;52.516;13.460;2023-07-31T10:29:15;17.00;99.90
32502;DHT22;18952;52.516;13.460;2023-07-31T10:31:42;17.10;99.90
32502;DHT22;18952;52.516;13.460;2023-07-31T10:34:10;17.00;99.90
32502;DHT22;18952;52.516;13.460;2023-07-31T10:36:37;17.00;99.90
32502;DHT22;18952;52.516;13.460;2023-07-31T10:39:04;17.00;99.90
32502;DHT22;18952;52.516;13.460;2023-07-31T10:41:31;17.10;99.90
32502;DHT22;18952;52.516;13.460;2023-07-31T10:44:01;17.20;99.90
32502;DHT22;18952;52.516;13.460;2023-07-31T10:46:28;17.40;99.90
32502;DHT22;18952;52.516;13.460;2023-07-31T10:49:00;17.70;99.90
32502;DHT22;18952;52.516;13.460;2023-07-31T10:51:35;17.70;99.90
32502;DHT22;18952;52.516;13.460;2023-07-31T10:54:15;17.90;99.90
32502;DHT22;18952;52.516;13.460;2023-07-31T10:56:46;18.30;99.90
32502;DHT22;18952;52.516;13.460;2023-07-31T10:59:13;18.60;99.90
32502;DHT22;18952;52.516;13.460;2023-07-31T11:01:54;18.80;99.90
32502;DHT22;18952;52.516;13.460;2023-07-31T11:04:27;19.00;99.90
32502;DHT22;18952;52.516;13.460;2023-07-31T11:07:01;19.20;99.90
32502;DHT22;18952;52.516;13.460;2023-07-31T11:09:30;19.20;99.90
32502;DHT22;18952;52.516;13.460;2023-07-31T11:11:57;19.30;99.90
32502;DHT22;18952;52.516;13.460;2023-07-31T11:14:24;19.40;99.90
32502;DHT22;18952;52.516;13.460;2023-07-31T11:16:50;19.40;99.90
32502;DHT22;18952;52.516;13.460;2023-07-31T11:19:24;19.40;99.90
32502;DHT22;18952;52.516;13.460;2023-07-31T11:21:54;19.30;99.90
32502;DHT22;18952;52.516;13.460;2023-07-31T11:24:23;19.30;99.90
32502;DHT22;18952;52.516;13.460;2023-07-31T11:26:57;19.10;99.90
32502;DHT22;18952;52.516;13.460;2023-07-31T11:29:27;19.20;99.90
32502;DHT22;18952;52.516;13.460;2023-07-31T11:31:54;19.20;99.90
32502;DHT22;18952;52.516;13.460;2023-07-31T11:34:20;19.20;99.90
32502;DHT22;18952;52.516;13.460;2023-07-31T11:36:54;19.20;99.90
32502;DHT22;18952;52.516;13.460;2023-07-31T11:39:21;19.20;99.90
32502;DHT22;18952;52.516;13.460;2023-07-31T11:41:48;19.20;99.90
32502;DHT22;18952;52.516;13.460;2023-07-31T11:44:14;19.20;99.90
32502;DHT22;18952;52.516;13.460;2023-07-31T11:46:53;19.20;99.90
32502;DHT22;18952;52.516;13.460;2023-07-31T11:49:23;19.10;99.90
32502;DHT22;18952;52.516;13.460;2023-07-31T11:51:50;19.10;99.90
32502;DHT22;18952;52.516;13.460;2023-07-31T11:54:17;19.10;99.90
32502;DHT22;18952;52.516;13.460;2023-07-31T11:56:44;19.20;99.90
32502;DHT22;18952;52.516;13.460;2023-07-31T11:59:11;19.20;99.90
32502;DHT22;18952;52.516;13.460;2023-07-31T12:01:38;19.20;99.90
32502;DHT22;18952;52.516;13.460;2023-07-31T12:04:05;19.20;99.90
32502;DHT22;18952;52.516;13.460;2023-07-31T12:06:36;19.10;99.90
32502;DHT22;18952;52.516;13.460;2023-07-31T12:09:04;19.20;99.90
32502;DHT22;18952;52.516;13.460;2023-07-31T12:11:43;19.20;99.90
32502;DHT22;18952;52.516;13.460;2023-07-31T12:14:26;19.00;99.90
32502;DHT22;18952;52.516;13.460;2023-07-31T12:16:59;19.10;99.90
32502;DHT22;18952;52.516;13.460;2023-07-31T12:19:28;19.20;99.90
32502;DHT22;18952;52.516;13.460;2023-07-31T12:21:58;19.30;99.90
32502;DHT22;18952;52.516;13.460;2023-07-31T12:24:26;19.50;99.90
32502;DHT22;18952;52.516;13.460;2023-07-31T12:26:53;19.50;99.90
32502;DHT22;18952;52.516;13.460;2023-07-31T12:29:20;19.70;99.90
32502;DHT22;18952;52.516;13.460;2023-07-31T12:31:47;19.80;99.90
32502;DHT22;18952;52.516;13.460;2023-07-31T12:34:19;19.80;99.90
32502;DHT22;18952;52.516;13.460;2023-07-31T12:36:45;19.70;99.90
32502;DHT22;18952;52.516;13.460;2023-07-31T12:39:12;19.70;99.90
32502;DHT22;18952;52.516;13.460;2023-07-31T12:41:39;19.90;99.90
32502;DHT22;18952;52.516;13.460;2023-07-31T12:44:06;20.10;99.90
32502;DHT22;18952;52.516;13.460;2023-07-31T12:46:33;20.30;99.90
32502;DHT22;18952;52.516;13.460;2023-07-31T12:49:00;20.30;99.90
32502;DHT22;18952;52.516;13.460;2023-07-31T12:51:27;20.40;99.90
32502;DHT22;18952;52.516;13.460;2023-07-31T12:53:53;20.40;99.90
32502;DHT22;18952;52.516;13.460;2023-07-31T12:56:20;20.40;99.90
32502;DHT22;18952;52.516;13.460;2023-07-31T12:58:47;20.50;99.90
32502;DHT22;18952;52.516;13.460;2023-07-31T13:01:14;20.50;99.90
32502;DHT22;18952;52.516;13.460;2023-07-31T13:03:41;20.40;99.90
32502;DHT22;18952;52.516;13.460;2023-07-31T13:06:08;20.20;99.90
32502;DHT22;18952;52.516;13.460;2023-07-31T13:08:35;20.30;99.90
32502;DHT22;18952;52.516;13.460;2023-07-31T13:11:01;20.40;99.90
32502;DHT22;18952;52.516;13.460;2023-07-31T13:13:28;20.20;99.90
32502;DHT22;18952;52.516;13.460;2023-07-31T13:15:56;20.00;99.90
32502;DHT22;18952;52.516;13.460;2023-07-31T13:18:23;19.90;99.90
32502;DHT22;18952;52.516;13.460;2023-07-31T13:20:50;20.00;99.90
32502;DHT22;18952;52.516;13.460;2023-07-31T13:23:17;20.10;99.90
32502;DHT22;18952;52.516;13.460;2023-07-31T13:25:43;20.20;99.90
32502;DHT22;18952;52.516;13.460;2023-07-31T13:28:10;20.10;99.90
32502;DHT22;18952;52.516;13.460;2023-07-31T13:30:37;20.00;99.90
32502;DHT22;18952;52.516;13.460;2023-07-31T13:33:04;20.00;99.90
32502;DHT22;18952;52.516;13.460;2023-07-31T13:35:31;19.90;99.90
32502;DHT22;18952;52.516;13.460;2023-07-31T13:37:58;20.00;99.90
32502;DHT22;18952;52.516;13.460;2023-07-31T13:40:24;20.10;99.90
32502;DHT22;18952;52.516;13.460;2023-07-31T13:42:51;20.20;99.90
32502;DHT22;18952;52.516;13.460;2023-07-31T13:45:18;20.40;99.90
32502;DHT22;18952;52.516;13.460;2023-07-31T13:47:45;20.60;99.90
32502;DHT22;18952;52.516;13.460;2023-07-31T13:50:11;20.90;99.90
32502;DHT22;18952;52.516;13.460;2023-07-31T13:52:38;21.10;99.90
32502;DHT22;18952;52.516;13.460;2023-07-31T13:55:05;21.20;99.90
32502;DHT22;18952;52.516;13.460;2023-07-31T13:57:32;21.10;99.90
32502;DHT22;18952;52.516;13.460;2023-07-31T13:59:59;21.10;99.90
32502;DHT22;18952;52.516;13.460;2023-07-31T14:02:26;21.00;99.90
32502;DHT22;18952;52.516;13.460;2023-07-31T14:04:53;21.00;99.90
32502;DHT22;18952;52.516;13.460;2023-07-31T14:07:19;20.90;99.90
32502;DHT22;18952;52.516;13.460;2023-07-31T14:09:46;20.90;99.90
32502;DHT22;18952;52.516;13.460;2023-07-31T14:12:13;20.90;99.90
32502;DHT22;18952;52.516;13.460;2023-07-31T14:14:57;20.90;99.90
32502;DHT22;18952;52.516;13.460;2023-07-31T14:17:24;20.90;99.90
32502;DHT22;18952;52.516;13.460;2023-07-31T14:19:51;21.00;99.90
32502;DHT22;18952;52.516;13.460;2023-07-31T14:22:30;20.90;99.90
32502;DHT22;18952;52.516;13.460;2023-07-31T14:24:57;20.90;99.90
32502;DHT22;18952;52.516;13.460;2023-07-31T14:27:24;20.80;99.90
32502;DHT22;18952;52.516;13.460;2023-07-31T14:29:51;20.70;99.90
32502;DHT22;18952;52.516;13.460;2023-07-31T14:32:17;20.80;99.90
32502;DHT22;18952;52.516;13.460;2023-07-31T14:34:44;20.70;99.90
32502;DHT22;18952;52.516;13.460;2023-07-31T14:37:11;20.80;99.90
32502;DHT22;18952;52.516;13.460;2023-07-31T14:39:38;20.70;99.90
32502;DHT22;18952;52.516;13.460;2023-07-31T14:42:07;20.80;99.90
32502;DHT22;18952;52.516;13.460;2023-07-31T14:44:34;20.80;99.90
32502;DHT22;18952;52.516;13.460;2023-07-31T14:47:00;20.90;99.90
32502;DHT22;18952;52.516;13.460;2023-07-31T14:49:27;20.90;99.90
32502;DHT22;18952;52.516;13.460;2023-07-31T14:51:54;20.80;99.90
32502;DHT22;18952;52.516;13.460;2023-07-31T14:54:21;20.80;99.90
32502;DHT22;18952;52.516;13.460;2023-07-31T14:56:48;20.60;99.90
32502;DHT22;18952;52.516;13.460;2023-07-31T14:59:15;20.70;99.90
32502;DHT22;18952;52.516;13.460;2023-07-31T15:01:42;20.60;99.90
32502;DHT22;18952;52.516;13.460;2023-07-31T15:04:08;20.60;99.90
32502;DHT22;18952;52.516;13.460;2023-07-31T15:06:35;20.60;99.90
32502;DHT22;18952;52.516;13.460;2023-07-31T15:09:02;20.60;99.90
32502;DHT22;18952;52.516;13.460;2023-07-31T15:11:29;20.60;99.90
32502;DHT22;18952;52.516;13.460;2023-07-31T15:13:56;20.60;99.90
32502;DHT22;18952;52.516;13.460;2023-07-31T15:16:23;20.50;99.90
32502;DHT22;18952;52.516;13.460;2023-07-31T15:18:49;20.50;99.90
32502;DHT22;18952;52.516;13.460;2023-07-31T15:21:16;20.40;99.90
32502;DHT22;18952;52.516;13.460;2023-07-31T15:23:43;20.40;99.90
32502;DHT22;18952;52.516;13.460;2023-07-31T15:26:10;20.30;99.90
32502;DHT22;18952;52.516;13.460;2023-07-31T15:28:37;20.40;99.90